sensor_id;sensor_type;location;lat;lon;timestamp;P1;durP1;ratioP1;P2;durP2;ratioP2
529;SDS011;251;48.704;9.210;2023-06-04T00:01:58;2.50;;;2.13;;
529;SDS011;251;48.704;9.210;2023-06-04T00:04:25;3.60;;;2.50;;
529;SDS011;251;48.704;9.210;2023-06-04T00:06:53;4.87;;;2.60;;
529;SDS011;251;48.704;9.210;2023-06-04T00:09:20;5.00;;;3.30;;
529;SDS011;251;48.704;9.210;2023-06-04T00:11:47;3.00;;;2.67;;
529;SDS011;251;48.704;9.210;2023-06-04T00:14:14;3.70;;;2.43;;
529;SDS011;251;48.704;9.210;2023-06-04T00:16:42;3.40;;;2.70;;
529;SDS011;251;48.704;9.210;2023-06-04T00:19:09;5.07;;;3.37;;
529;SDS011;251;48.704;9.210;2023-06-04T00:21:36;3.50;;;2.73;;
529;SDS011;251;48.704;9.210;2023-06-04T00:24:03;3.00;;;2.73;;
529;SDS011;251;48.704;9.210;2023-06-04T00:26:30;6.03;;;2.30;;
529;SDS011;251;48.704;9.210;2023-06-04T00:28:57;3.57;;;2.83;;
529;SDS011;251;48.704;9.210;2023-06-04T00:31:23;12.00;;;2.80;;
529;SDS011;251;48.704;9.210;2023-06-04T00:33:52;3.20;;;2.60;;
529;SDS011;251;48.704;9.210;2023-06-04T00:36:19;2.87;;;2.47;;
529;SDS011;251;48.704;9.210;2023-06-04T00:38:45;3.33;;;2.50;;
529;SDS011;251;48.704;9.210;2023-06-04T00:41:12;4.90;;;2.87;;
529;SDS011;251;48.704;9.210;2023-06-04T00:43:39;4.60;;;3.17;;
529;SDS011;251;48.704;9.210;2023-06-04T00:46:10;6.97;;;3.10;;
529;SDS011;251;48.704;9.210;2023-06-04T00:48:43;2.95;;;2.65;;
529;SDS011;251;48.704;9.210;2023-06-04T00:51:11;3.30;;;3.00;;
529;SDS011;251;48.704;9.210;2023-06-04T00:53:38;3.15;;;2.63;;
529;SDS011;251;48.704;9.210;2023-06-04T00:56:05;3.92;;;3.25;;
529;SDS011;251;48.704;9.210;2023-06-04T00:58:33;5.85;;;3.67;;
529;SDS011;251;48.704;9.210;2023-06-04T01:01:04;4.53;;;3.33;;
529;SDS011;251;48.704;9.210;2023-06-04T01:03:33;4.10;;;3.20;;
529;SDS011;251;48.704;9.210;2023-06-04T01:06:04;2.83;;;2.53;;
529;SDS011;251;48.704;9.210;2023-06-04T01:08:40;3.60;;;2.70;;
529;SDS011;251;48.704;9.210;2023-06-04T01:11:09;3.30;;;2.50;;
529;SDS011;251;48.704;9.210;2023-06-04T01:13:36;3.75;;;2.90;;
529;SDS011;251;48.704;9.210;2023-06-04T01:16:03;3.55;;;2.70;;
529;SDS011;251;48.704;9.210;2023-06-04T01:18:30;4.83;;;2.70;;
529;SDS011;251;48.704;9.210;2023-06-04T01:20:59;4.30;;;2.60;;
529;SDS011;251;48.704;9.210;2023-06-04T01:23:32;6.90;;;2.53;;
529;SDS011;251;48.704;9.210;2023-06-04T01:26:05;3.50;;;2.83;;
529;SDS011;251;48.704;9.210;2023-06-04T01:28:32;4.07;;;3.40;;
529;SDS011;251;48.704;9.210;2023-06-04T01:31:00;3.10;;;2.30;;
529;SDS011;251;48.704;9.210;2023-06-04T01:33:29;3.25;;;2.80;;
529;SDS011;251;48.704;9.210;2023-06-04T01:35:57;3.75;;;2.40;;
529;SDS011;251;48.704;9.210;2023-06-04T01:38:25;5.32;;;3.30;;
529;SDS011;251;48.704;9.210;2023-06-04T01:40:51;4.65;;;3.00;;
529;SDS011;251;48.704;9.210;2023-06-04T01:43:22;3.88;;;3.25;;
529;SDS011;251;48.704;9.210;2023-06-04T01:45:49;3.47;;;3.17;;
529;SDS011;251;48.704;9.210;2023-06-04T01:48:16;4.30;;;2.33;;
529;SDS011;251;48.704;9.210;2023-06-04T01:50:44;4.45;;;3.53;;
529;SDS011;251;48.704;9.210;2023-06-04T01:53:10;5.72;;;3.13;;
529;SDS011;251;48.704;9.210;2023-06-04T01:55:37;4.35;;;2.80;;
529;SDS011;251;48.704;9.210;2023-06-04T01:58:04;4.68;;;2.70;;
529;SDS011;251;48.704;9.210;2023-06-04T02:00:33;4.68;;;2.88;;
529;SDS011;251;48.704;9.210;2023-06-04T02:03:00;4.17;;;3.20;;
529;SDS011;251;48.704;9.210;2023-06-04T02:05:27;3.70;;;2.80;;
529;SDS011;251;48.704;9.210;2023-06-04T02:07:54;2.95;;;2.65;;
529;SDS011;251;48.704;9.210;2023-06-04T02:10:22;8.98;;;3.05;;
529;SDS011;251;48.704;9.210;2023-06-04T02:12:52;4.00;;;2.75;;
529;SDS011;251;48.704;9.210;2023-06-04T02:15:21;4.80;;;2.65;;
529;SDS011;251;48.704;9.210;2023-06-04T02:17:50;5.13;;;2.78;;
529;SDS011;251;48.704;9.210;2023-06-04T02:20:17;3.85;;;2.67;;
529;SDS011;251;48.704;9.210;2023-06-04T02:22:44;3.03;;;2.42;;
529;SDS011;251;48.704;9.210;2023-06-04T02:25:10;3.25;;;2.80;;
529;SDS011;251;48.704;9.210;2023-06-04T02:27:37;3.38;;;2.00;;
529;SDS011;251;48.704;9.210;2023-06-04T02:30:04;3.30;;;2.75;;
529;SDS011;251;48.704;9.210;2023-06-04T02:32:32;4.53;;;3.15;;
529;SDS011;251;48.704;9.210;2023-06-04T02:35:02;4.40;;;2.85;;
529;SDS011;251;48.704;9.210;2023-06-04T02:37:29;6.00;;;2.70;;
529;SDS011;251;48.704;9.210;2023-06-04T02:39:56;3.28;;;2.70;;
529;SDS011;251;48.704;9.210;2023-06-04T02:42:23;4.78;;;3.03;;
529;SDS011;251;48.704;9.210;2023-06-04T02:44:51;7.13;;;3.13;;
529;SDS011;251;48.704;9.210;2023-06-04T02:47:18;3.47;;;2.60;;
529;SDS011;251;48.704;9.210;2023-06-04T02:49:45;5.78;;;3.22;;
529;SDS011;251;48.704;9.210;2023-06-04T02:52:13;3.78;;;2.47;;
529;SDS011;251;48.704;9.210;2023-06-04T02:54:40;3.42;;;2.88;;
529;SDS011;251;48.704;9.210;2023-06-04T02:57:07;4.28;;;2.90;;
529;SDS011;251;48.704;9.210;2023-06-04T02:59:34;3.38;;;2.70;;
529;SDS011;251;48.704;9.210;2023-06-04T03:02:01;8.45;;;3.25;;
529;SDS011;251;48.704;9.210;2023-06-04T03:04:28;4.30;;;3.75;;
529;SDS011;251;48.704;9.210;2023-06-04T03:06:59;3.47;;;2.90;;
529;SDS011;251;48.704;9.210;2023-06-04T03:09:29;3.20;;;2.75;;
529;SDS011;251;48.704;9.210;2023-06-04T03:11:57;3.38;;;2.70;;
529;SDS011;251;48.704;9.210;2023-06-04T03:14:25;3.80;;;2.78;;
529;SDS011;251;48.704;9.210;2023-06-04T03:16:57;2.88;;;2.63;;
529;SDS011;251;48.704;9.210;2023-06-04T03:19:26;4.15;;;2.25;;
529;SDS011;251;48.704;9.210;2023-06-04T03:21:53;3.15;;;2.65;;
529;SDS011;251;48.704;9.210;2023-06-04T03:24:21;4.22;;;2.95;;
529;SDS011;251;48.704;9.210;2023-06-04T03:26:50;2.95;;;1.90;;
529;SDS011;251;48.704;9.210;2023-06-04T03:29:16;4.53;;;3.55;;
529;SDS011;251;48.704;9.210;2023-06-04T03:31:43;3.28;;;2.45;;
529;SDS011;251;48.704;9.210;2023-06-04T03:34:11;3.50;;;2.58;;
529;SDS011;251;48.704;9.210;2023-06-04T03:36:37;3.33;;;2.10;;
529;SDS011;251;48.704;9.210;2023-06-04T03:39:06;2.67;;;2.28;;
529;SDS011;251;48.704;9.210;2023-06-04T03:41:32;3.40;;;2.58;;
529;SDS011;251;48.704;9.210;2023-06-04T03:44:01;4.75;;;3.33;;
529;SDS011;251;48.704;9.210;2023-06-04T03:46:30;3.92;;;2.72;;
529;SDS011;251;48.704;9.210;2023-06-04T03:48:59;3.20;;;2.88;;
529;SDS011;251;48.704;9.210;2023-06-04T03:51:28;3.40;;;2.70;;
529;SDS011;251;48.704;9.210;2023-06-04T03:53:57;4.28;;;3.60;;
529;SDS011;251;48.704;9.210;2023-06-04T03:56:24;3.70;;;2.40;;
529;SDS011;251;48.704;9.210;2023-06-04T03:58:52;3.45;;;2.22;;
529;SDS011;251;48.704;9.210;2023-06-04T04:01:20;4.80;;;2.65;;
529;SDS011;251;48.704;9.210;2023-06-04T04:03:48;3.97;;;2.80;;
529;SDS011;251;48.704;9.210;2023-06-04T04:06:16;3.33;;;2.63;;
529;SDS011;251;48.704;9.210;2023-06-04T04:08:43;3.58;;;3.05;;
529;SDS011;251;48.704;9.210;2023-06-04T04:11:12;2.45;;;2.25;;
529;SDS011;251;48.704;9.210;2023-06-04T04:13:41;1.70;;;1.45;;
529;SDS011;251;48.704;9.210;2023-06-04T04:16:08;3.53;;;2.40;;
529;SDS011;251;48.704;9.210;2023-06-04T04:18:37;3.58;;;2.90;;
529;SDS011;251;48.704;9.210;2023-06-04T04:21:07;3.30;;;2.58;;
529;SDS011;251;48.704;9.210;2023-06-04T04:23:37;3.35;;;2.03;;
529;SDS011;251;48.704;9.210;2023-06-04T04:26:04;3.80;;;3.28;;
529;SDS011;251;48.704;9.210;2023-06-04T04:28:31;3.08;;;2.10;;
529;SDS011;251;48.704;9.210;2023-06-04T04:31:00;3.33;;;1.70;;
529;SDS011;251;48.704;9.210;2023-06-04T04:33:30;3.10;;;2.80;;
529;SDS011;251;48.704;9.210;2023-06-04T04:36:03;3.30;;;2.42;;
529;SDS011;251;48.704;9.210;2023-06-04T04:38:31;3.40;;;3.00;;
529;SDS011;251;48.704;9.210;2023-06-04T04:41:01;2.80;;;2.25;;
529;SDS011;251;48.704;9.210;2023-06-04T04:43:28;4.65;;;2.17;;
529;SDS011;251;48.704;9.210;2023-06-04T04:45:57;3.08;;;1.95;;
529;SDS011;251;48.704;9.210;2023-06-04T04:48:24;3.03;;;2.30;;
529;SDS011;251;48.704;9.210;2023-06-04T04:50:51;2.92;;;2.47;;
529;SDS011;251;48.704;9.210;2023-06-04T04:53:20;4.00;;;2.22;;
529;SDS011;251;48.704;9.210;2023-06-04T04:55:47;3.28;;;2.45;;
529;SDS011;251;48.704;9.210;2023-06-04T04:58:14;3.35;;;2.28;;
529;SDS011;251;48.704;9.210;2023-06-04T05:00:42;3.40;;;2.15;;
529;SDS011;251;48.704;9.210;2023-06-04T05:03:08;4.43;;;2.92;;
529;SDS011;251;48.704;9.210;2023-06-04T05:05:35;2.47;;;2.28;;
529;SDS011;251;48.704;9.210;2023-06-04T05:08:04;3.88;;;2.70;;
529;SDS011;251;48.704;9.210;2023-06-04T05:10:36;2.38;;;1.85;;
529;SDS011;251;48.704;9.210;2023-06-04T05:13:05;3.03;;;2.40;;
529;SDS011;251;48.704;9.210;2023-06-04T05:15:52;4.07;;;2.25;;
529;SDS011;251;48.704;9.210;2023-06-04T05:18:21;2.90;;;2.13;;
529;SDS011;251;48.704;9.210;2023-06-04T05:20:55;2.70;;;1.80;;
529;SDS011;251;48.704;9.210;2023-06-04T05:23:23;2.08;;;1.50;;
529;SDS011;251;48.704;9.210;2023-06-04T05:25:51;11.00;;;2.80;;
529;SDS011;251;48.704;9.210;2023-06-04T05:28:20;3.25;;;2.42;;
529;SDS011;251;48.704;9.210;2023-06-04T05:30:49;2.92;;;2.10;;
529;SDS011;251;48.704;9.210;2023-06-04T05:33:17;4.13;;;2.50;;
529;SDS011;251;48.704;9.210;2023-06-04T05:35:49;2.70;;;2.00;;
529;SDS011;251;48.704;9.210;2023-06-04T05:38:17;3.75;;;2.40;;
529;SDS011;251;48.704;9.210;2023-06-04T05:40:45;3.05;;;1.95;;
529;SDS011;251;48.704;9.210;2023-06-04T05:43:14;2.38;;;1.80;;
529;SDS011;251;48.704;9.210;2023-06-04T05:45:41;3.27;;;1.97;;
529;SDS011;251;48.704;9.210;2023-06-04T05:48:07;2.53;;;1.80;;
529;SDS011;251;48.704;9.210;2023-06-04T05:50:34;1.80;;;1.43;;
529;SDS011;251;48.704;9.210;2023-06-04T05:53:01;1.70;;;1.23;;
529;SDS011;251;48.704;9.210;2023-06-04T05:55:28;2.93;;;1.50;;
529;SDS011;251;48.704;9.210;2023-06-04T05:57:56;3.17;;;1.70;;
529;SDS011;251;48.704;9.210;2023-06-04T06:00:24;2.20;;;1.80;;
529;SDS011;251;48.704;9.210;2023-06-04T06:02:51;2.37;;;1.50;;
529;SDS011;251;48.704;9.210;2023-06-04T06:05:36;2.00;;;1.40;;
529;SDS011;251;48.704;9.210;2023-06-04T06:08:03;1.43;;;1.00;;
529;SDS011;251;48.704;9.210;2023-06-04T06:10:30;2.20;;;1.27;;
529;SDS011;251;48.704;9.210;2023-06-04T06:12:57;5.33;;;1.67;;
529;SDS011;251;48.704;9.210;2023-06-04T06:15:27;2.13;;;1.47;;
529;SDS011;251;48.704;9.210;2023-06-04T06:17:55;1.97;;;1.33;;
529;SDS011;251;48.704;9.210;2023-06-04T06:20:22;2.20;;;1.73;;
529;SDS011;251;48.704;9.210;2023-06-04T06:22:49;6.43;;;1.70;;
529;SDS011;251;48.704;9.210;2023-06-04T06:25:17;2.87;;;1.10;;
529;SDS011;251;48.704;9.210;2023-06-04T06:27:56;1.80;;;1.03;;
529;SDS011;251;48.704;9.210;2023-06-04T06:30:24;1.53;;;1.07;;
529;SDS011;251;48.704;9.210;2023-06-04T06:32:53;4.47;;;1.10;;
529;SDS011;251;48.704;9.210;2023-06-04T06:35:23;2.20;;;1.50;;
529;SDS011;251;48.704;9.210;2023-06-04T06:37:53;1.97;;;1.23;;
529;SDS011;251;48.704;9.210;2023-06-04T06:40:20;2.40;;;1.30;;
529;SDS011;251;48.704;9.210;2023-06-04T06:42:47;1.43;;;1.13;;
529;SDS011;251;48.704;9.210;2023-06-04T06:45:15;1.70;;;1.23;;
529;SDS011;251;48.704;9.210;2023-06-04T06:47:44;2.10;;;1.27;;
529;SDS011;251;48.704;9.210;2023-06-04T06:50:11;2.43;;;1.50;;
529;SDS011;251;48.704;9.210;2023-06-04T06:52:37;1.50;;;1.00;;
529;SDS011;251;48.704;9.210;2023-06-04T06:55:05;1.50;;;1.00;;
529;SDS011;251;48.704;9.210;2023-06-04T06:57:32;3.50;;;1.70;;
529;SDS011;251;48.704;9.210;2023-06-04T06:59:59;1.50;;;1.00;;
529;SDS011;251;48.704;9.210;2023-06-04T07:02:26;1.77;;;0.90;;
529;SDS011;251;48.704;9.210;2023-06-04T07:04:55;1.77;;;1.23;;
529;SDS011;251;48.704;9.210;2023-06-04T07:07:22;2.57;;;1.20;;
529;SDS011;251;48.704;9.210;2023-06-04T07:09:48;2.00;;;1.07;;
529;SDS011;251;48.704;9.210;2023-06-04T07:12:16;3.57;;;1.73;;
529;SDS011;251;48.704;9.210;2023-06-04T07:14:42;1.87;;;1.10;;
529;SDS011;251;48.704;9.210;2023-06-04T07:17:10;1.90;;;1.13;;
529;SDS011;251;48.704;9.210;2023-06-04T07:19:36;1.67;;;1.10;;
529;SDS011;251;48.704;9.210;2023-06-04T07:22:05;2.20;;;1.63;;
529;SDS011;251;48.704;9.210;2023-06-04T07:24:31;2.17;;;1.27;;
529;SDS011;251;48.704;9.210;2023-06-04T07:26:58;3.03;;;1.70;;
529;SDS011;251;48.704;9.210;2023-06-04T07:29:25;1.40;;;1.10;;
529;SDS011;251;48.704;9.210;2023-06-04T07:31:52;2.40;;;1.63;;
529;SDS011;251;48.704;9.210;2023-06-04T07:34:19;2.90;;;1.40;;
529;SDS011;251;48.704;9.210;2023-06-04T07:36:46;1.93;;;1.33;;
529;SDS011;251;48.704;9.210;2023-06-04T07:39:15;1.70;;;1.47;;
529;SDS011;251;48.704;9.210;2023-06-04T07:41:41;1.90;;;1.27;;
529;SDS011;251;48.704;9.210;2023-06-04T07:44:08;2.00;;;1.47;;
529;SDS011;251;48.704;9.210;2023-06-04T07:46:35;2.30;;;1.63;;
529;SDS011;251;48.704;9.210;2023-06-04T07:49:01;3.57;;;1.50;;
529;SDS011;251;48.704;9.210;2023-06-04T07:51:28;3.40;;;1.30;;
529;SDS011;251;48.704;9.210;2023-06-04T07:53:55;1.93;;;1.50;;
529;SDS011;251;48.704;9.210;2023-06-04T07:56:23;3.17;;;1.80;;
529;SDS011;251;48.704;9.210;2023-06-04T07:58:50;1.70;;;1.13;;
529;SDS011;251;48.704;9.210;2023-06-04T08:01:17;2.93;;;1.47;;
529;SDS011;251;48.704;9.210;2023-06-04T08:03:44;1.73;;;1.27;;
529;SDS011;251;48.704;9.210;2023-06-04T08:06:10;2.20;;;1.47;;
529;SDS011;251;48.704;9.210;2023-06-04T08:08:41;2.33;;;1.40;;
529;SDS011;251;48.704;9.210;2023-06-04T08:11:09;2.63;;;1.37;;
529;SDS011;251;48.704;9.210;2023-06-04T08:13:38;2.17;;;1.20;;
529;SDS011;251;48.704;9.210;2023-06-04T08:16:05;2.80;;;1.37;;
529;SDS011;251;48.704;9.210;2023-06-04T08:18:32;3.53;;;1.70;;
529;SDS011;251;48.704;9.210;2023-06-04T08:21:00;2.63;;;1.67;;
529;SDS011;251;48.704;9.210;2023-06-04T08:23:26;3.10;;;1.30;;
529;SDS011;251;48.704;9.210;2023-06-04T08:25:53;1.97;;;1.43;;
529;SDS011;251;48.704;9.210;2023-06-04T08:28:20;4.63;;;1.60;;
529;SDS011;251;48.704;9.210;2023-06-04T08:30:48;1.70;;;1.10;;
529;SDS011;251;48.704;9.210;2023-06-04T08:33:15;2.70;;;1.63;;
529;SDS011;251;48.704;9.210;2023-06-04T08:35:42;1.87;;;1.30;;
529;SDS011;251;48.704;9.210;2023-06-04T08:38:09;2.10;;;1.30;;
529;SDS011;251;48.704;9.210;2023-06-04T08:40:35;1.60;;;1.00;;
529;SDS011;251;48.704;9.210;2023-06-04T08:43:02;1.60;;;1.10;;
529;SDS011;251;48.704;9.210;2023-06-04T08:45:31;1.83;;;1.50;;
529;SDS011;251;48.704;9.210;2023-06-04T08:48:00;2.10;;;1.40;;
529;SDS011;251;48.704;9.210;2023-06-04T08:50:29;2.60;;;1.33;;
529;SDS011;251;48.704;9.210;2023-06-04T08:52:56;2.53;;;1.40;;
529;SDS011;251;48.704;9.210;2023-06-04T08:55:23;1.50;;;1.03;;
529;SDS011;251;48.704;9.210;2023-06-04T08:57:50;2.40;;;1.17;;
529;SDS011;251;48.704;9.210;2023-06-04T09:00:18;1.90;;;1.60;;
529;SDS011;251;48.704;9.210;2023-06-04T09:02:47;2.27;;;1.43;;
529;SDS011;251;48.704;9.210;2023-06-04T09:05:19;1.60;;;1.00;;
529;SDS011;251;48.704;9.210;2023-06-04T09:07:47;2.03;;;0.90;;
529;SDS011;251;48.704;9.210;2023-06-04T09:10:18;1.90;;;1.30;;
529;SDS011;251;48.704;9.210;2023-06-04T09:12:48;1.57;;;0.90;;
529;SDS011;251;48.704;9.210;2023-06-04T09:15:17;1.90;;;1.70;;
529;SDS011;251;48.704;9.210;2023-06-04T09:17:44;4.50;;;1.37;;
529;SDS011;251;48.704;9.210;2023-06-04T09:20:21;2.30;;;1.63;;
529;SDS011;251;48.704;9.210;2023-06-04T09:22:49;2.40;;;1.27;;
529;SDS011;251;48.704;9.210;2023-06-04T09:25:19;1.77;;;1.33;;
529;SDS011;251;48.704;9.210;2023-06-04T09:27:47;2.17;;;1.53;;
529;SDS011;251;48.704;9.210;2023-06-04T09:30:15;2.17;;;1.00;;
529;SDS011;251;48.704;9.210;2023-06-04T09:32:41;3.17;;;1.47;;
529;SDS011;251;48.704;9.210;2023-06-04T09:35:09;1.80;;;1.37;;
529;SDS011;251;48.704;9.210;2023-06-04T09:37:39;5.57;;;1.90;;
529;SDS011;251;48.704;9.210;2023-06-04T09:40:06;1.77;;;1.27;;
529;SDS011;251;48.704;9.210;2023-06-04T09:42:43;2.30;;;1.50;;
529;SDS011;251;48.704;9.210;2023-06-04T09:45:11;2.00;;;1.50;;
529;SDS011;251;48.704;9.210;2023-06-04T09:47:39;1.93;;;1.00;;
529;SDS011;251;48.704;9.210;2023-06-04T09:50:10;1.80;;;1.50;;
529;SDS011;251;48.704;9.210;2023-06-04T09:52:39;2.10;;;1.77;;
529;SDS011;251;48.704;9.210;2023-06-04T09:55:15;1.70;;;1.20;;
529;SDS011;251;48.704;9.210;2023-06-04T09:57:46;1.70;;;1.00;;
529;SDS011;251;48.704;9.210;2023-06-04T10:00:15;1.80;;;1.37;;
529;SDS011;251;48.704;9.210;2023-06-04T10:02:43;2.37;;;1.80;;
529;SDS011;251;48.704;9.210;2023-06-04T10:05:11;3.90;;;1.87;;
529;SDS011;251;48.704;9.210;2023-06-04T10:07:40;3.40;;;1.57;;
529;SDS011;251;48.704;9.210;2023-06-04T10:10:10;2.67;;;1.77;;
529;SDS011;251;48.704;9.210;2023-06-04T10:12:43;2.10;;;1.60;;
529;SDS011;251;48.704;9.210;2023-06-04T10:15:13;2.10;;;1.50;;
529;SDS011;251;48.704;9.210;2023-06-04T10:17:40;2.23;;;1.80;;
529;SDS011;251;48.704;9.210;2023-06-04T10:20:07;3.67;;;2.20;;
529;SDS011;251;48.704;9.210;2023-06-04T10:22:35;2.00;;;1.67;;
529;SDS011;251;48.704;9.210;2023-06-04T10:25:05;2.27;;;1.40;;
529;SDS011;251;48.704;9.210;2023-06-04T10:27:35;1.80;;;1.50;;
529;SDS011;251;48.704;9.210;2023-06-04T10:30:02;3.07;;;1.53;;
529;SDS011;251;48.704;9.210;2023-06-04T10:32:31;2.27;;;1.77;;
529;SDS011;251;48.704;9.210;2023-06-04T10:34:58;2.40;;;1.63;;
529;SDS011;251;48.704;9.210;2023-06-04T10:37:29;2.17;;;1.47;;
529;SDS011;251;48.704;9.210;2023-06-04T10:39:56;2.73;;;1.47;;
529;SDS011;251;48.704;9.210;2023-06-04T10:42:26;2.13;;;1.40;;
529;SDS011;251;48.704;9.210;2023-06-04T10:45:05;2.00;;;1.60;;
529;SDS011;251;48.704;9.210;2023-06-04T10:47:33;1.73;;;1.30;;
529;SDS011;251;48.704;9.210;2023-06-04T10:50:07;2.63;;;2.00;;
529;SDS011;251;48.704;9.210;2023-06-04T10:52:34;2.43;;;1.60;;
529;SDS011;251;48.704;9.210;2023-06-04T10:55:05;3.93;;;2.10;;
529;SDS011;251;48.704;9.210;2023-06-04T10:57:34;1.60;;;1.20;;
529;SDS011;251;48.704;9.210;2023-06-04T11:00:01;1.77;;;1.50;;
529;SDS011;251;48.704;9.210;2023-06-04T11:02:31;2.00;;;1.20;;
529;SDS011;251;48.704;9.210;2023-06-04T11:04:59;7.33;;;1.90;;
529;SDS011;251;48.704;9.210;2023-06-04T11:07:39;9.17;;;2.40;;
529;SDS011;251;48.704;9.210;2023-06-04T11:10:10;3.13;;;2.00;;
529;SDS011;251;48.704;9.210;2023-06-04T11:12:42;4.07;;;1.73;;
529;SDS011;251;48.704;9.210;2023-06-04T11:15:09;1.93;;;1.73;;
529;SDS011;251;48.704;9.210;2023-06-04T11:17:36;4.70;;;4.30;;
529;SDS011;251;48.704;9.210;2023-06-04T11:20:03;2.93;;;1.70;;
529;SDS011;251;48.704;9.210;2023-06-04T11:22:41;1.87;;;1.30;;
529;SDS011;251;48.704;9.210;2023-06-04T11:25:08;2.10;;;1.70;;
529;SDS011;251;48.704;9.210;2023-06-04T11:27:36;2.27;;;1.57;;
529;SDS011;251;48.704;9.210;2023-06-04T11:30:05;2.10;;;1.47;;
529;SDS011;251;48.704;9.210;2023-06-04T11:32:34;1.63;;;1.10;;
529;SDS011;251;48.704;9.210;2023-06-04T11:35:02;2.93;;;1.40;;
529;SDS011;251;48.704;9.210;2023-06-04T11:37:33;2.23;;;1.70;;
529;SDS011;251;48.704;9.210;2023-06-04T11:40:01;2.23;;;1.70;;
529;SDS011;251;48.704;9.210;2023-06-04T11:42:30;3.43;;;2.23;;
529;SDS011;251;48.704;9.210;2023-06-04T11:44:58;1.73;;;1.50;;
529;SDS011;251;48.704;9.210;2023-06-04T11:47:26;2.23;;;1.80;;
529;SDS011;251;48.704;9.210;2023-06-04T11:49:56;4.33;;;1.80;;
529;SDS011;251;48.704;9.210;2023-06-04T11:52:23;2.50;;;1.80;;
529;SDS011;251;48.704;9.210;2023-06-04T11:54:52;2.17;;;1.53;;
529;SDS011;251;48.704;9.210;2023-06-04T11:57:19;1.63;;;1.30;;
529;SDS011;251;48.704;9.210;2023-06-04T11:59:47;2.10;;;1.40;;
529;SDS011;251;48.704;9.210;2023-06-04T12:02:14;1.80;;;1.43;;
529;SDS011;251;48.704;9.210;2023-06-04T12:04:43;2.83;;;2.10;;
529;SDS011;251;48.704;9.210;2023-06-04T12:07:10;3.50;;;1.50;;
529;SDS011;251;48.704;9.210;2023-06-04T12:09:37;2.50;;;1.47;;
529;SDS011;251;48.704;9.210;2023-06-04T12:12:05;1.60;;;1.43;;
529;SDS011;251;48.704;9.210;2023-06-04T12:14:33;3.00;;;1.87;;
529;SDS011;251;48.704;9.210;2023-06-04T12:17:01;2.03;;;1.77;;
529;SDS011;251;48.704;9.210;2023-06-04T12:19:32;1.77;;;1.57;;
529;SDS011;251;48.704;9.210;2023-06-04T12:22:00;2.03;;;1.80;;
529;SDS011;251;48.704;9.210;2023-06-04T12:24:29;3.10;;;1.47;;
529;SDS011;251;48.704;9.210;2023-06-04T12:27:00;1.80;;;1.50;;
529;SDS011;251;48.704;9.210;2023-06-04T12:29:28;2.23;;;1.70;;
529;SDS011;251;48.704;9.210;2023-06-04T12:32:01;1.80;;;1.30;;
529;SDS011;251;48.704;9.210;2023-06-04T12:34:29;2.57;;;1.60;;
529;SDS011;251;48.704;9.210;2023-06-04T12:36:56;2.30;;;1.50;;
529;SDS011;251;48.704;9.210;2023-06-04T12:39:28;1.83;;;1.50;;
529;SDS011;251;48.704;9.210;2023-06-04T12:41:56;2.13;;;1.57;;
529;SDS011;251;48.704;9.210;2023-06-04T12:44:25;1.80;;;1.10;;
529;SDS011;251;48.704;9.210;2023-06-04T12:46:53;1.40;;;1.13;;
529;SDS011;251;48.704;9.210;2023-06-04T12:49:20;1.67;;;1.40;;
529;SDS011;251;48.704;9.210;2023-06-04T12:51:46;1.97;;;1.63;;
529;SDS011;251;48.704;9.210;2023-06-04T12:54:15;2.30;;;2.00;;
529;SDS011;251;48.704;9.210;2023-06-04T12:56:42;1.53;;;1.30;;
529;SDS011;251;48.704;9.210;2023-06-04T12:59:09;1.87;;;1.47;;
529;SDS011;251;48.704;9.210;2023-06-04T13:01:36;2.00;;;1.80;;
529;SDS011;251;48.704;9.210;2023-06-04T13:04:03;2.83;;;1.90;;
529;SDS011;251;48.704;9.210;2023-06-04T13:06:31;1.67;;;1.03;;
529;SDS011;251;48.704;9.210;2023-06-04T13:08:58;3.53;;;1.60;;
529;SDS011;251;48.704;9.210;2023-06-04T13:11:26;1.97;;;1.57;;
529;SDS011;251;48.704;9.210;2023-06-04T13:13:53;1.97;;;1.77;;
529;SDS011;251;48.704;9.210;2023-06-04T13:16:19;2.20;;;1.40;;
529;SDS011;251;48.704;9.210;2023-06-04T13:18:46;1.73;;;1.40;;
529;SDS011;251;48.704;9.210;2023-06-04T13:21:13;2.03;;;1.70;;
529;SDS011;251;48.704;9.210;2023-06-04T13:23:40;3.97;;;2.00;;
529;SDS011;251;48.704;9.210;2023-06-04T13:26:07;1.80;;;1.30;;
529;SDS011;251;48.704;9.210;2023-06-04T13:28:36;1.90;;;1.50;;
529;SDS011;251;48.704;9.210;2023-06-04T13:31:03;3.03;;;2.10;;
529;SDS011;251;48.704;9.210;2023-06-04T13:33:30;1.90;;;1.60;;
529;SDS011;251;48.704;9.210;2023-06-04T13:35:59;2.40;;;1.67;;
529;SDS011;251;48.704;9.210;2023-06-04T13:38:26;1.90;;;1.50;;
529;SDS011;251;48.704;9.210;2023-06-04T13:40:52;1.50;;;1.00;;
529;SDS011;251;48.704;9.210;2023-06-04T13:43:20;1.80;;;1.43;;
529;SDS011;251;48.704;9.210;2023-06-04T13:45:48;2.37;;;1.30;;
529;SDS011;251;48.704;9.210;2023-06-04T13:48:15;2.67;;;1.60;;
529;SDS011;251;48.704;9.210;2023-06-04T13:50:41;1.83;;;1.50;;
529;SDS011;251;48.704;9.210;2023-06-04T13:53:09;8.57;;;2.40;;
529;SDS011;251;48.704;9.210;2023-06-04T13:55:36;1.47;;;1.10;;
529;SDS011;251;48.704;9.210;2023-06-04T13:58:02;1.87;;;1.53;;
529;SDS011;251;48.704;9.210;2023-06-04T14:00:29;1.57;;;1.30;;
529;SDS011;251;48.704;9.210;2023-06-04T14:02:57;1.90;;;1.43;;
529;SDS011;251;48.704;9.210;2023-06-04T14:05:24;1.77;;;1.50;;
529;SDS011;251;48.704;9.210;2023-06-04T14:07:53;2.43;;;1.80;;
529;SDS011;251;48.704;9.210;2023-06-04T14:10:19;2.23;;;1.57;;
529;SDS011;251;48.704;9.210;2023-06-04T14:12:46;2.00;;;1.43;;
529;SDS011;251;48.704;9.210;2023-06-04T14:15:13;1.67;;;1.20;;
529;SDS011;251;48.704;9.210;2023-06-04T14:17:40;2.37;;;1.30;;
529;SDS011;251;48.704;9.210;2023-06-04T14:20:09;1.73;;;1.33;;
529;SDS011;251;48.704;9.210;2023-06-04T14:22:36;2.33;;;1.57;;
529;SDS011;251;48.704;9.210;2023-06-04T14:25:03;1.93;;;1.33;;
529;SDS011;251;48.704;9.210;2023-06-04T14:27:31;1.87;;;1.20;;
529;SDS011;251;48.704;9.210;2023-06-04T14:29:58;1.60;;;1.23;;
529;SDS011;251;48.704;9.210;2023-06-04T14:32:25;1.87;;;1.37;;
529;SDS011;251;48.704;9.210;2023-06-04T14:34:51;1.60;;;1.23;;
529;SDS011;251;48.704;9.210;2023-06-04T14:37:20;2.70;;;1.90;;
529;SDS011;251;48.704;9.210;2023-06-04T14:39:47;2.60;;;1.90;;
529;SDS011;251;48.704;9.210;2023-06-04T14:42:13;1.40;;;1.10;;
529;SDS011;251;48.704;9.210;2023-06-04T14:44:40;1.90;;;1.57;;
529;SDS011;251;48.704;9.210;2023-06-04T14:47:07;1.60;;;1.07;;
529;SDS011;251;48.704;9.210;2023-06-04T14:49:34;2.20;;;1.50;;
529;SDS011;251;48.704;9.210;2023-06-04T14:52:03;1.60;;;1.00;;
529;SDS011;251;48.704;9.210;2023-06-04T14:54:32;1.40;;;1.17;;
529;SDS011;251;48.704;9.210;2023-06-04T14:56:59;2.83;;;1.50;;
529;SDS011;251;48.704;9.210;2023-06-04T14:59:27;2.33;;;1.67;;
529;SDS011;251;48.704;9.210;2023-06-04T15:01:54;2.33;;;1.30;;
529;SDS011;251;48.704;9.210;2023-06-04T15:04:21;1.70;;;1.20;;
529;SDS011;251;48.704;9.210;2023-06-04T15:06:48;1.70;;;1.27;;
529;SDS011;251;48.704;9.210;2023-06-04T15:09:14;1.97;;;1.33;;
529;SDS011;251;48.704;9.210;2023-06-04T15:11:43;2.17;;;1.50;;
529;SDS011;251;48.704;9.210;2023-06-04T15:14:09;2.03;;;1.50;;
529;SDS011;251;48.704;9.210;2023-06-04T15:16:36;1.67;;;1.27;;
529;SDS011;251;48.704;9.210;2023-06-04T15:19:03;2.10;;;1.20;;
529;SDS011;251;48.704;9.210;2023-06-04T15:21:30;1.83;;;1.37;;
529;SDS011;251;48.704;9.210;2023-06-04T15:23:57;2.83;;;1.80;;
529;SDS011;251;48.704;9.210;2023-06-04T15:26:23;1.87;;;1.63;;
529;SDS011;251;48.704;9.210;2023-06-04T15:28:53;2.77;;;1.53;;
529;SDS011;251;48.704;9.210;2023-06-04T15:31:21;3.23;;;1.97;;
529;SDS011;251;48.704;9.210;2023-06-04T15:33:48;2.47;;;1.50;;
529;SDS011;251;48.704;9.210;2023-06-04T15:36:15;1.80;;;1.50;;
529;SDS011;251;48.704;9.210;2023-06-04T15:38:42;1.67;;;1.30;;
529;SDS011;251;48.704;9.210;2023-06-04T15:41:08;3.10;;;1.97;;
529;SDS011;251;48.704;9.210;2023-06-04T15:43:35;2.40;;;1.50;;
529;SDS011;251;48.704;9.210;2023-06-04T15:46:03;2.63;;;1.97;;
529;SDS011;251;48.704;9.210;2023-06-04T15:48:30;2.20;;;1.80;;
529;SDS011;251;48.704;9.210;2023-06-04T15:50:57;3.37;;;1.70;;